METAR Data
IDs: Format: Raw Decoded Include TAF

Data at: 0217 UTC 29 Nov 2020

METAR for:KEOK (Keokuk Muni, IA, US)
Text:KEOK 290215Z AUTO 21009KT 10SM CLR 07/M00 A3009 RMK AO2
Temperature: 7.0°C ( 45°F)
Dewpoint: 0.0°C ( 32°F) [RH = 61%]
Pressure (altimeter):30.09 inches Hg (1019.0 mb)
Winds:from the SSW (210 degrees) at 10 MPH (9 knots; 4.6 m/s)
Visibility:10 or more sm (16+ km)
Ceiling:at least 12,000 feet AGL
Clouds:sky clear below 12,000 feet AGL
QC Flag:automated observation with no human augmentation